sensor_id;sensor_type;location;lat;lon;timestamp;P1;durP1;ratioP1;P2;durP2;ratioP2
22441;SDS011;11388;54.456;9.752;2023-04-09T00:00:37;160.75;;;23.65;;
22441;SDS011;11388;54.456;9.752;2023-04-09T00:03:03;68.78;;;21.38;;
22441;SDS011;11388;54.456;9.752;2023-04-09T00:05:29;96.13;;;20.33;;
22441;SDS011;11388;54.456;9.752;2023-04-09T00:07:55;100.90;;;19.77;;
22441;SDS011;11388;54.456;9.752;2023-04-09T00:10:23;105.38;;;18.75;;
22441;SDS011;11388;54.456;9.752;2023-04-09T00:12:48;137.02;;;21.20;;
22441;SDS011;11388;54.456;9.752;2023-04-09T00:15:14;35.35;;;16.58;;
22441;SDS011;11388;54.456;9.752;2023-04-09T00:17:40;31.55;;;16.55;;
22441;SDS011;11388;54.456;9.752;2023-04-09T00:20:06;90.03;;;18.92;;
22441;SDS011;11388;54.456;9.752;2023-04-09T00:22:32;57.70;;;19.13;;
22441;SDS011;11388;54.456;9.752;2023-04-09T00:24:58;89.38;;;19.00;;
22441;SDS011;11388;54.456;9.752;2023-04-09T00:27:24;96.57;;;18.77;;
22441;SDS011;11388;54.456;9.752;2023-04-09T00:29:52;75.55;;;16.50;;
22441;SDS011;11388;54.456;9.752;2023-04-09T00:32:18;119.10;;;17.08;;
22441;SDS011;11388;54.456;9.752;2023-04-09T00:34:44;99.78;;;16.20;;
22441;SDS011;11388;54.456;9.752;2023-04-09T00:37:10;89.22;;;15.55;;
22441;SDS011;11388;54.456;9.752;2023-04-09T00:39:36;31.17;;;14.77;;
22441;SDS011;11388;54.456;9.752;2023-04-09T00:42:02;53.47;;;23.27;;
22441;SDS011;11388;54.456;9.752;2023-04-09T00:44:27;164.45;;;19.95;;
22441;SDS011;11388;54.456;9.752;2023-04-09T00:46:53;44.47;;;15.32;;
22441;SDS011;11388;54.456;9.752;2023-04-09T00:49:19;71.72;;;17.23;;
22441;SDS011;11388;54.456;9.752;2023-04-09T00:51:45;82.78;;;17.95;;
22441;SDS011;11388;54.456;9.752;2023-04-09T00:54:12;49.38;;;16.95;;
22441;SDS011;11388;54.456;9.752;2023-04-09T00:56:38;136.60;;;21.08;;
22441;SDS011;11388;54.456;9.752;2023-04-09T00:59:06;249.38;;;24.48;;
22441;SDS011;11388;54.456;9.752;2023-04-09T01:01:32;212.38;;;19.83;;
22441;SDS011;11388;54.456;9.752;2023-04-09T01:03:57;435.40;;;28.25;;
22441;SDS011;11388;54.456;9.752;2023-04-09T01:06:29;131.20;;;33.38;;
22441;SDS011;11388;54.456;9.752;2023-04-09T01:09:30;69.07;;;24.48;;
22441;SDS011;11388;54.456;9.752;2023-04-09T01:14:36;61.03;;;19.85;;
22441;SDS011;11388;54.456;9.752;2023-04-09T01:17:11;83.22;;;16.25;;
22441;SDS011;11388;54.456;9.752;2023-04-09T01:19:57;47.03;;;14.85;;
22441;SDS011;11388;54.456;9.752;2023-04-09T01:23:15;48.85;;;14.68;;
22441;SDS011;11388;54.456;9.752;2023-04-09T01:25:48;43.65;;;16.35;;
22441;SDS011;11388;54.456;9.752;2023-04-09T01:28:41;31.50;;;17.05;;
22441;SDS011;11388;54.456;9.752;2023-04-09T01:31:13;26.70;;;16.98;;
22441;SDS011;11388;54.456;9.752;2023-04-09T01:33:42;26.58;;;16.42;;
22441;SDS011;11388;54.456;9.752;2023-04-09T01:36:09;35.60;;;16.13;;
22441;SDS011;11388;54.456;9.752;2023-04-09T01:38:35;17.45;;;14.80;;
22441;SDS011;11388;54.456;9.752;2023-04-09T01:41:05;18.90;;;14.98;;
22441;SDS011;11388;54.456;9.752;2023-04-09T01:43:33;16.75;;;14.85;;
22441;SDS011;11388;54.456;9.752;2023-04-09T01:46:00;17.40;;;15.10;;
22441;SDS011;11388;54.456;9.752;2023-04-09T01:48:28;17.83;;;15.32;;
22441;SDS011;11388;54.456;9.752;2023-04-09T01:50:56;16.30;;;14.60;;
22441;SDS011;11388;54.456;9.752;2023-04-09T01:53:22;15.02;;;13.43;;
22441;SDS011;11388;54.456;9.752;2023-04-09T01:55:48;16.73;;;15.00;;
22441;SDS011;11388;54.456;9.752;2023-04-09T01:58:14;14.57;;;13.07;;
22441;SDS011;11388;54.456;9.752;2023-04-09T02:00:46;16.80;;;15.00;;
22441;SDS011;11388;54.456;9.752;2023-04-09T02:03:23;13.80;;;12.35;;
22441;SDS011;11388;54.456;9.752;2023-04-09T02:08:23;15.52;;;13.25;;
22441;SDS011;11388;54.456;9.752;2023-04-09T02:10:53;13.65;;;12.25;;
22441;SDS011;11388;54.456;9.752;2023-04-09T02:13:22;13.10;;;11.80;;
22441;SDS011;11388;54.456;9.752;2023-04-09T02:15:51;14.05;;;12.57;;
22441;SDS011;11388;54.456;9.752;2023-04-09T02:18:23;15.27;;;13.25;;
22441;SDS011;11388;54.456;9.752;2023-04-09T02:20:51;16.35;;;13.65;;
22441;SDS011;11388;54.456;9.752;2023-04-09T02:23:17;20.08;;;16.35;;
22441;SDS011;11388;54.456;9.752;2023-04-09T02:25:43;18.52;;;15.68;;
22441;SDS011;11388;54.456;9.752;2023-04-09T02:28:09;32.90;;;17.80;;
22441;SDS011;11388;54.456;9.752;2023-04-09T02:30:35;17.83;;;15.07;;
22441;SDS011;11388;54.456;9.752;2023-04-09T02:33:01;20.55;;;16.30;;
22441;SDS011;11388;54.456;9.752;2023-04-09T02:35:26;23.98;;;17.73;;
22441;SDS011;11388;54.456;9.752;2023-04-09T02:37:52;47.05;;;24.85;;
22441;SDS011;11388;54.456;9.752;2023-04-09T02:40:18;36.20;;;25.45;;
22441;SDS011;11388;54.456;9.752;2023-04-09T02:42:44;27.90;;;20.88;;
22441;SDS011;11388;54.456;9.752;2023-04-09T02:45:10;27.25;;;20.73;;
22441;SDS011;11388;54.456;9.752;2023-04-09T02:47:35;18.05;;;15.05;;
22441;SDS011;11388;54.456;9.752;2023-04-09T02:50:01;15.48;;;13.43;;
22441;SDS011;11388;54.456;9.752;2023-04-09T02:52:27;15.02;;;13.13;;
22441;SDS011;11388;54.456;9.752;2023-04-09T02:54:52;15.23;;;13.57;;
22441;SDS011;11388;54.456;9.752;2023-04-09T02:57:18;15.40;;;13.80;;
22441;SDS011;11388;54.456;9.752;2023-04-09T02:59:44;15.15;;;13.55;;
22441;SDS011;11388;54.456;9.752;2023-04-09T03:02:10;14.27;;;12.77;;
22441;SDS011;11388;54.456;9.752;2023-04-09T03:04:38;14.30;;;12.80;;
22441;SDS011;11388;54.456;9.752;2023-04-09T03:07:04;14.07;;;12.68;;
22441;SDS011;11388;54.456;9.752;2023-04-09T03:09:30;14.30;;;12.80;;
22441;SDS011;11388;54.456;9.752;2023-04-09T03:11:56;15.15;;;13.65;;
22441;SDS011;11388;54.456;9.752;2023-04-09T03:14:25;16.70;;;14.27;;
22441;SDS011;11388;54.456;9.752;2023-04-09T03:16:50;20.90;;;17.73;;
22441;SDS011;11388;54.456;9.752;2023-04-09T03:19:16;19.85;;;16.85;;
22441;SDS011;11388;54.456;9.752;2023-04-09T03:21:41;19.75;;;16.90;;
22441;SDS011;11388;54.456;9.752;2023-04-09T03:24:07;18.42;;;15.82;;
22441;SDS011;11388;54.456;9.752;2023-04-09T03:26:33;17.48;;;15.50;;
22441;SDS011;11388;54.456;9.752;2023-04-09T03:29:04;16.70;;;14.75;;
22441;SDS011;11388;54.456;9.752;2023-04-09T03:31:31;18.23;;;15.02;;
22441;SDS011;11388;54.456;9.752;2023-04-09T03:33:57;16.73;;;15.00;;
22441;SDS011;11388;54.456;9.752;2023-04-09T03:36:23;16.95;;;14.60;;
22441;SDS011;11388;54.456;9.752;2023-04-09T03:38:48;17.35;;;15.43;;
22441;SDS011;11388;54.456;9.752;2023-04-09T03:41:14;16.35;;;14.68;;
22441;SDS011;11388;54.456;9.752;2023-04-09T03:43:40;14.82;;;13.30;;
22441;SDS011;11388;54.456;9.752;2023-04-09T03:46:10;14.85;;;13.25;;
22441;SDS011;11388;54.456;9.752;2023-04-09T03:48:37;13.85;;;12.43;;
22441;SDS011;11388;54.456;9.752;2023-04-09T03:51:02;15.63;;;14.07;;
22441;SDS011;11388;54.456;9.752;2023-04-09T03:53:28;17.33;;;15.13;;
22441;SDS011;11388;54.456;9.752;2023-04-09T03:55:54;15.73;;;14.13;;
22441;SDS011;11388;54.456;9.752;2023-04-09T03:58:20;16.63;;;14.82;;
22441;SDS011;11388;54.456;9.752;2023-04-09T04:00:46;17.92;;;16.10;;
22441;SDS011;11388;54.456;9.752;2023-04-09T04:03:12;16.25;;;14.55;;
22441;SDS011;11388;54.456;9.752;2023-04-09T04:05:40;16.00;;;14.30;;
22441;SDS011;11388;54.456;9.752;2023-04-09T04:08:06;15.07;;;13.52;;
22441;SDS011;11388;54.456;9.752;2023-04-09T04:10:32;14.77;;;13.30;;
22441;SDS011;11388;54.456;9.752;2023-04-09T04:12:59;15.48;;;13.25;;
22441;SDS011;11388;54.456;9.752;2023-04-09T04:15:26;15.07;;;13.48;;
22441;SDS011;11388;54.456;9.752;2023-04-09T04:17:52;16.80;;;15.00;;
22441;SDS011;11388;54.456;9.752;2023-04-09T04:20:18;17.35;;;15.55;;
22441;SDS011;11388;54.456;9.752;2023-04-09T04:25:14;16.88;;;15.07;;
22441;SDS011;11388;54.456;9.752;2023-04-09T04:27:42;15.88;;;13.57;;
22441;SDS011;11388;54.456;9.752;2023-04-09T04:30:08;15.63;;;13.13;;
22441;SDS011;11388;54.456;9.752;2023-04-09T04:32:34;15.07;;;13.40;;
22441;SDS011;11388;54.456;9.752;2023-04-09T04:34:59;16.23;;;13.63;;
22441;SDS011;11388;54.456;9.752;2023-04-09T04:37:25;16.88;;;15.07;;
22441;SDS011;11388;54.456;9.752;2023-04-09T04:39:51;19.00;;;15.90;;
22441;SDS011;11388;54.456;9.752;2023-04-09T04:42:16;22.38;;;17.30;;
22441;SDS011;11388;54.456;9.752;2023-04-09T04:44:42;21.65;;;16.63;;
22441;SDS011;11388;54.456;9.752;2023-04-09T04:47:09;23.23;;;18.30;;
22441;SDS011;11388;54.456;9.752;2023-04-09T04:49:34;25.02;;;18.77;;
22441;SDS011;11388;54.456;9.752;2023-04-09T04:52:00;26.08;;;19.52;;
22441;SDS011;11388;54.456;9.752;2023-04-09T04:54:26;26.20;;;19.05;;
22441;SDS011;11388;54.456;9.752;2023-04-09T04:56:52;24.63;;;18.88;;
22441;SDS011;11388;54.456;9.752;2023-04-09T04:59:18;28.83;;;20.17;;
22441;SDS011;11388;54.456;9.752;2023-04-09T05:01:43;28.30;;;21.95;;
22441;SDS011;11388;54.456;9.752;2023-04-09T05:04:09;29.38;;;20.80;;
22441;SDS011;11388;54.456;9.752;2023-04-09T05:06:35;27.17;;;19.73;;
22441;SDS011;11388;54.456;9.752;2023-04-09T05:09:01;27.73;;;20.67;;
22441;SDS011;11388;54.456;9.752;2023-04-09T05:11:27;32.65;;;21.00;;
22441;SDS011;11388;54.456;9.752;2023-04-09T05:13:52;26.40;;;19.75;;
22441;SDS011;11388;54.456;9.752;2023-04-09T05:16:18;25.20;;;19.70;;
22441;SDS011;11388;54.456;9.752;2023-04-09T05:18:45;26.48;;;19.90;;
22441;SDS011;11388;54.456;9.752;2023-04-09T05:21:11;29.80;;;21.58;;
22441;SDS011;11388;54.456;9.752;2023-04-09T05:23:37;30.40;;;21.63;;
22441;SDS011;11388;54.456;9.752;2023-04-09T05:26:02;36.70;;;24.67;;
22441;SDS011;11388;54.456;9.752;2023-04-09T05:28:28;32.33;;;22.98;;
22441;SDS011;11388;54.456;9.752;2023-04-09T05:30:54;31.33;;;23.42;;
22441;SDS011;11388;54.456;9.752;2023-04-09T05:33:20;29.73;;;22.17;;
22441;SDS011;11388;54.456;9.752;2023-04-09T05:35:46;30.73;;;22.30;;
22441;SDS011;11388;54.456;9.752;2023-04-09T05:38:11;29.75;;;21.55;;
22441;SDS011;11388;54.456;9.752;2023-04-09T05:40:38;29.48;;;20.73;;
22441;SDS011;11388;54.456;9.752;2023-04-09T05:43:04;29.63;;;21.98;;
22441;SDS011;11388;54.456;9.752;2023-04-09T05:45:30;29.98;;;22.08;;
22441;SDS011;11388;54.456;9.752;2023-04-09T05:47:55;28.05;;;21.00;;
22441;SDS011;11388;54.456;9.752;2023-04-09T05:50:21;28.42;;;21.20;;
22441;SDS011;11388;54.456;9.752;2023-04-09T05:52:48;27.35;;;19.85;;
22441;SDS011;11388;54.456;9.752;2023-04-09T05:55:14;27.48;;;20.75;;
22441;SDS011;11388;54.456;9.752;2023-04-09T05:57:39;27.52;;;20.67;;
22441;SDS011;11388;54.456;9.752;2023-04-09T06:00:05;28.10;;;20.73;;
22441;SDS011;11388;54.456;9.752;2023-04-09T06:02:32;25.55;;;19.85;;
22441;SDS011;11388;54.456;9.752;2023-04-09T06:04:57;26.38;;;19.77;;
22441;SDS011;11388;54.456;9.752;2023-04-09T06:07:23;25.52;;;19.25;;
22441;SDS011;11388;54.456;9.752;2023-04-09T06:09:49;26.98;;;20.85;;
22441;SDS011;11388;54.456;9.752;2023-04-09T06:12:15;27.85;;;21.20;;
22441;SDS011;11388;54.456;9.752;2023-04-09T06:14:41;29.48;;;22.23;;
22441;SDS011;11388;54.456;9.752;2023-04-09T06:17:07;26.08;;;20.73;;
22441;SDS011;11388;54.456;9.752;2023-04-09T06:19:32;30.10;;;23.05;;
22441;SDS011;11388;54.456;9.752;2023-04-09T06:21:58;29.08;;;22.20;;
22441;SDS011;11388;54.456;9.752;2023-04-09T06:24:24;28.05;;;20.90;;
22441;SDS011;11388;54.456;9.752;2023-04-09T06:26:50;29.45;;;22.05;;
22441;SDS011;11388;54.456;9.752;2023-04-09T06:29:16;28.83;;;22.55;;
22441;SDS011;11388;54.456;9.752;2023-04-09T06:31:41;30.55;;;22.52;;
22441;SDS011;11388;54.456;9.752;2023-04-09T06:34:07;29.15;;;22.45;;
22441;SDS011;11388;54.456;9.752;2023-04-09T06:36:33;29.38;;;21.80;;
22441;SDS011;11388;54.456;9.752;2023-04-09T06:39:01;28.23;;;21.10;;
22441;SDS011;11388;54.456;9.752;2023-04-09T06:41:27;29.35;;;21.92;;
22441;SDS011;11388;54.456;9.752;2023-04-09T06:43:53;28.42;;;21.52;;
22441;SDS011;11388;54.456;9.752;2023-04-09T06:46:19;29.20;;;21.92;;
22441;SDS011;11388;54.456;9.752;2023-04-09T06:48:45;26.42;;;20.80;;
22441;SDS011;11388;54.456;9.752;2023-04-09T06:51:11;24.70;;;18.70;;
22441;SDS011;11388;54.456;9.752;2023-04-09T06:53:37;22.35;;;18.05;;
22441;SDS011;11388;54.456;9.752;2023-04-09T06:56:03;25.60;;;18.80;;
22441;SDS011;11388;54.456;9.752;2023-04-09T06:58:30;22.20;;;18.30;;
22441;SDS011;11388;54.456;9.752;2023-04-09T07:00:56;21.10;;;17.85;;
22441;SDS011;11388;54.456;9.752;2023-04-09T07:03:21;20.85;;;17.17;;
22441;SDS011;11388;54.456;9.752;2023-04-09T07:05:47;19.80;;;17.10;;
22441;SDS011;11388;54.456;9.752;2023-04-09T07:08:16;22.95;;;17.25;;
22441;SDS011;11388;54.456;9.752;2023-04-09T07:10:55;15.50;;;13.82;;
22441;SDS011;11388;54.456;9.752;2023-04-09T07:13:21;16.38;;;14.07;;
22441;SDS011;11388;54.456;9.752;2023-04-09T07:15:46;15.63;;;13.55;;
22441;SDS011;11388;54.456;9.752;2023-04-09T07:18:12;13.60;;;12.07;;
22441;SDS011;11388;54.456;9.752;2023-04-09T07:20:38;15.38;;;13.55;;
22441;SDS011;11388;54.456;9.752;2023-04-09T07:23:03;16.20;;;14.20;;
22441;SDS011;11388;54.456;9.752;2023-04-09T07:25:29;15.95;;;14.00;;
22441;SDS011;11388;54.456;9.752;2023-04-09T07:27:55;16.20;;;14.35;;
22441;SDS011;11388;54.456;9.752;2023-04-09T07:30:21;16.23;;;14.52;;
22441;SDS011;11388;54.456;9.752;2023-04-09T07:32:50;17.02;;;14.68;;
22441;SDS011;11388;54.456;9.752;2023-04-09T07:35:16;17.60;;;15.15;;
22441;SDS011;11388;54.456;9.752;2023-04-09T07:37:42;18.10;;;15.57;;
22441;SDS011;11388;54.456;9.752;2023-04-09T07:40:08;19.02;;;16.25;;
22441;SDS011;11388;54.456;9.752;2023-04-09T07:42:38;17.80;;;15.57;;
22441;SDS011;11388;54.456;9.752;2023-04-09T07:45:04;19.63;;;17.10;;
22441;SDS011;11388;54.456;9.752;2023-04-09T07:47:30;18.73;;;16.63;;
22441;SDS011;11388;54.456;9.752;2023-04-09T07:49:57;20.00;;;17.65;;
22441;SDS011;11388;54.456;9.752;2023-04-09T07:52:24;19.35;;;17.15;;
22441;SDS011;11388;54.456;9.752;2023-04-09T07:54:51;19.70;;;16.15;;
22441;SDS011;11388;54.456;9.752;2023-04-09T07:57:16;20.05;;;17.70;;
22441;SDS011;11388;54.456;9.752;2023-04-09T07:59:42;24.20;;;16.98;;
22441;SDS011;11388;54.456;9.752;2023-04-09T08:02:13;19.13;;;16.92;;
22441;SDS011;11388;54.456;9.752;2023-04-09T08:04:41;19.65;;;16.73;;
22441;SDS011;11388;54.456;9.752;2023-04-09T08:07:07;18.50;;;16.48;;
22441;SDS011;11388;54.456;9.752;2023-04-09T08:09:33;19.83;;;17.05;;
22441;SDS011;11388;54.456;9.752;2023-04-09T08:11:59;19.55;;;15.70;;
22441;SDS011;11388;54.456;9.752;2023-04-09T08:14:25;19.40;;;14.73;;
22441;SDS011;11388;54.456;9.752;2023-04-09T08:16:50;20.15;;;14.75;;
22441;SDS011;11388;54.456;9.752;2023-04-09T08:19:19;23.00;;;16.20;;
22441;SDS011;11388;54.456;9.752;2023-04-09T08:21:45;18.63;;;15.20;;
22441;SDS011;11388;54.456;9.752;2023-04-09T08:24:14;20.70;;;16.23;;
22441;SDS011;11388;54.456;9.752;2023-04-09T08:26:40;19.88;;;15.50;;
22441;SDS011;11388;54.456;9.752;2023-04-09T08:29:07;20.40;;;15.32;;
22441;SDS011;11388;54.456;9.752;2023-04-09T08:31:34;18.95;;;14.95;;
22441;SDS011;11388;54.456;9.752;2023-04-09T08:34:02;19.00;;;14.95;;
22441;SDS011;11388;54.456;9.752;2023-04-09T08:36:28;18.67;;;15.02;;
22441;SDS011;11388;54.456;9.752;2023-04-09T08:38:55;17.88;;;14.27;;
22441;SDS011;11388;54.456;9.752;2023-04-09T08:41:22;19.70;;;14.85;;
22441;SDS011;11388;54.456;9.752;2023-04-09T08:43:49;18.17;;;14.13;;
22441;SDS011;11388;54.456;9.752;2023-04-09T08:46:19;18.27;;;13.57;;
22441;SDS011;11388;54.456;9.752;2023-04-09T08:52:05;19.20;;;14.05;;
22441;SDS011;11388;54.456;9.752;2023-04-09T08:54:34;17.73;;;13.50;;
22441;SDS011;11388;54.456;9.752;2023-04-09T08:57:04;19.42;;;14.30;;
22441;SDS011;11388;54.456;9.752;2023-04-09T08:59:30;18.95;;;13.73;;
22441;SDS011;11388;54.456;9.752;2023-04-09T09:02:07;18.05;;;14.45;;
22441;SDS011;11388;54.456;9.752;2023-04-09T09:07:10;18.20;;;14.80;;
22441;SDS011;11388;54.456;9.752;2023-04-09T09:12:45;18.63;;;15.13;;
22441;SDS011;11388;54.456;9.752;2023-04-09T09:15:26;17.35;;;15.30;;
22441;SDS011;11388;54.456;9.752;2023-04-09T09:17:53;17.20;;;15.18;;
22441;SDS011;11388;54.456;9.752;2023-04-09T09:20:26;18.67;;;15.55;;
22441;SDS011;11388;54.456;9.752;2023-04-09T09:22:52;17.95;;;15.02;;
22441;SDS011;11388;54.456;9.752;2023-04-09T09:25:21;17.55;;;13.68;;
22441;SDS011;11388;54.456;9.752;2023-04-09T09:27:51;19.90;;;14.82;;
22441;SDS011;11388;54.456;9.752;2023-04-09T09:30:23;18.25;;;14.15;;
22441;SDS011;11388;54.456;9.752;2023-04-09T09:35:30;20.35;;;14.70;;
22441;SDS011;11388;54.456;9.752;2023-04-09T09:38:10;17.60;;;14.73;;
22441;SDS011;11388;54.456;9.752;2023-04-09T09:40:41;17.23;;;13.93;;
22441;SDS011;11388;54.456;9.752;2023-04-09T09:43:07;16.92;;;12.88;;
22441;SDS011;11388;54.456;9.752;2023-04-09T09:45:33;18.58;;;14.23;;
22441;SDS011;11388;54.456;9.752;2023-04-09T09:48:01;17.42;;;13.05;;
22441;SDS011;11388;54.456;9.752;2023-04-09T09:50:28;16.05;;;12.90;;
22441;SDS011;11388;54.456;9.752;2023-04-09T09:53:03;14.32;;;12.38;;
22441;SDS011;11388;54.456;9.752;2023-04-09T09:55:30;15.20;;;12.35;;
22441;SDS011;11388;54.456;9.752;2023-04-09T09:57:59;15.80;;;11.95;;
22441;SDS011;11388;54.456;9.752;2023-04-09T10:00:28;13.77;;;11.45;;
22441;SDS011;11388;54.456;9.752;2023-04-09T10:02:58;14.95;;;10.85;;
22441;SDS011;11388;54.456;9.752;2023-04-09T10:05:36;14.63;;;10.52;;
22441;SDS011;11388;54.456;9.752;2023-04-09T10:08:10;12.75;;;9.77;;
22441;SDS011;11388;54.456;9.752;2023-04-09T10:10:43;13.23;;;10.57;;
22441;SDS011;11388;54.456;9.752;2023-04-09T10:13:29;14.50;;;9.93;;
22441;SDS011;11388;54.456;9.752;2023-04-09T10:16:16;12.75;;;9.30;;
22441;SDS011;11388;54.456;9.752;2023-04-09T10:18:43;12.20;;;9.00;;
22441;SDS011;11388;54.456;9.752;2023-04-09T10:24:26;13.30;;;9.27;;
22441;SDS011;11388;54.456;9.752;2023-04-09T12:13:45;5.63;;;4.07;;
22441;SDS011;11388;54.456;9.752;2023-04-09T12:16:17;6.85;;;4.00;;
22441;SDS011;11388;54.456;9.752;2023-04-09T12:18:50;6.53;;;4.15;;
22441;SDS011;11388;54.456;9.752;2023-04-09T12:24:51;6.68;;;4.18;;
22441;SDS011;11388;54.456;9.752;2023-04-09T12:27:20;5.68;;;4.25;;
22441;SDS011;11388;54.456;9.752;2023-04-09T12:29:53;7.55;;;4.18;;
22441;SDS011;11388;54.456;9.752;2023-04-09T12:32:19;6.53;;;3.50;;
22441;SDS011;11388;54.456;9.752;2023-04-09T12:34:45;6.60;;;3.60;;
22441;SDS011;11388;54.456;9.752;2023-04-09T12:37:11;5.80;;;3.70;;
22441;SDS011;11388;54.456;9.752;2023-04-09T12:39:37;5.60;;;3.63;;
22441;SDS011;11388;54.456;9.752;2023-04-09T12:42:02;5.18;;;3.45;;
22441;SDS011;11388;54.456;9.752;2023-04-09T12:44:28;5.70;;;3.42;;
22441;SDS011;11388;54.456;9.752;2023-04-09T12:46:54;7.03;;;3.80;;
22441;SDS011;11388;54.456;9.752;2023-04-09T12:49:20;6.57;;;3.92;;
22441;SDS011;11388;54.456;9.752;2023-04-09T12:51:45;6.18;;;3.80;;
22441;SDS011;11388;54.456;9.752;2023-04-09T12:54:14;8.00;;;4.10;;
22441;SDS011;11388;54.456;9.752;2023-04-09T12:56:42;8.18;;;4.20;;
22441;SDS011;11388;54.456;9.752;2023-04-09T12:59:08;6.35;;;3.80;;
22441;SDS011;11388;54.456;9.752;2023-04-09T13:01:34;5.80;;;3.80;;
22441;SDS011;11388;54.456;9.752;2023-04-09T13:04:01;6.45;;;3.63;;
22441;SDS011;11388;54.456;9.752;2023-04-09T13:06:27;6.53;;;3.85;;
22441;SDS011;11388;54.456;9.752;2023-04-09T13:08:53;5.68;;;3.58;;
22441;SDS011;11388;54.456;9.752;2023-04-09T13:44:57;5.97;;;3.20;;
22441;SDS011;11388;54.456;9.752;2023-04-09T13:54:30;4.90;;;3.20;;
22441;SDS011;11388;54.456;9.752;2023-04-09T13:57:24;5.70;;;3.10;;
22441;SDS011;11388;54.456;9.752;2023-04-09T14:00:36;5.20;;;3.33;;
22441;SDS011;11388;54.456;9.752;2023-04-09T14:03:02;6.68;;;3.50;;
22441;SDS011;11388;54.456;9.752;2023-04-09T14:05:28;6.00;;;3.67;;
22441;SDS011;11388;54.456;9.752;2023-04-09T14:07:58;6.50;;;4.00;;
22441;SDS011;11388;54.456;9.752;2023-04-09T14:10:25;8.10;;;4.07;;
22441;SDS011;11388;54.456;9.752;2023-04-09T14:12:51;6.20;;;3.88;;
22441;SDS011;11388;54.456;9.752;2023-04-09T14:15:17;7.13;;;4.10;;
22441;SDS011;11388;54.456;9.752;2023-04-09T14:17:43;7.00;;;4.88;;
22441;SDS011;11388;54.456;9.752;2023-04-09T14:20:09;7.35;;;4.80;;
22441;SDS011;11388;54.456;9.752;2023-04-09T14:22:35;6.90;;;4.70;;
22441;SDS011;11388;54.456;9.752;2023-04-09T14:25:01;6.55;;;4.40;;
22441;SDS011;11388;54.456;9.752;2023-04-09T14:27:26;7.78;;;4.10;;
22441;SDS011;11388;54.456;9.752;2023-04-09T14:29:52;7.18;;;4.22;;
22441;SDS011;11388;54.456;9.752;2023-04-09T14:32:23;6.93;;;4.03;;
22441;SDS011;11388;54.456;9.752;2023-04-09T14:34:48;6.57;;;4.15;;
22441;SDS011;11388;54.456;9.752;2023-04-09T14:37:14;7.20;;;4.38;;
22441;SDS011;11388;54.456;9.752;2023-04-09T14:39:41;8.07;;;4.50;;
22441;SDS011;11388;54.456;9.752;2023-04-09T14:42:06;7.18;;;4.40;;
22441;SDS011;11388;54.456;9.752;2023-04-09T14:44:32;8.02;;;4.80;;
22441;SDS011;11388;54.456;9.752;2023-04-09T14:46:58;7.30;;;4.50;;
22441;SDS011;11388;54.456;9.752;2023-04-09T14:49:24;6.70;;;4.57;;
22441;SDS011;11388;54.456;9.752;2023-04-09T14:51:49;8.40;;;4.88;;
22441;SDS011;11388;54.456;9.752;2023-04-09T14:54:16;7.40;;;4.60;;
22441;SDS011;11388;54.456;9.752;2023-04-09T14:56:44;6.28;;;4.57;;
22441;SDS011;11388;54.456;9.752;2023-04-09T14:59:10;7.65;;;4.50;;
22441;SDS011;11388;54.456;9.752;2023-04-09T15:01:36;7.43;;;4.40;;
22441;SDS011;11388;54.456;9.752;2023-04-09T15:04:04;6.95;;;4.00;;
22441;SDS011;11388;54.456;9.752;2023-04-09T15:06:30;7.22;;;4.38;;
22441;SDS011;11388;54.456;9.752;2023-04-09T15:08:56;7.78;;;4.05;;
22441;SDS011;11388;54.456;9.752;2023-04-09T15:11:38;6.10;;;4.10;;
22441;SDS011;11388;54.456;9.752;2023-04-09T15:14:09;6.28;;;4.10;;
22441;SDS011;11388;54.456;9.752;2023-04-09T15:16:48;6.47;;;3.90;;
22441;SDS011;11388;54.456;9.752;2023-04-09T15:19:21;7.07;;;4.10;;
22441;SDS011;11388;54.456;9.752;2023-04-09T15:21:56;7.60;;;4.35;;
22441;SDS011;11388;54.456;9.752;2023-04-09T15:24:27;7.28;;;4.07;;
22441;SDS011;11388;54.456;9.752;2023-04-09T15:26:53;8.38;;;4.20;;
22441;SDS011;11388;54.456;9.752;2023-04-09T15:29:23;8.77;;;5.13;;
22441;SDS011;11388;54.456;9.752;2023-04-09T15:31:55;8.35;;;4.65;;
22441;SDS011;11388;54.456;9.752;2023-04-09T15:34:28;8.75;;;4.75;;
22441;SDS011;11388;54.456;9.752;2023-04-09T15:37:04;7.28;;;4.70;;
22441;SDS011;11388;54.456;9.752;2023-04-09T15:39:40;8.05;;;4.40;;
22441;SDS011;11388;54.456;9.752;2023-04-09T15:42:15;7.30;;;4.75;;
22441;SDS011;11388;54.456;9.752;2023-04-09T15:45:01;6.40;;;4.50;;
22441;SDS011;11388;54.456;9.752;2023-04-09T15:47:53;8.10;;;4.40;;
22441;SDS011;11388;54.456;9.752;2023-04-09T15:50:18;6.47;;;4.35;;
22441;SDS011;11388;54.456;9.752;2023-04-09T15:52:47;8.43;;;4.80;;
22441;SDS011;11388;54.456;9.752;2023-04-09T15:55:40;6.93;;;4.43;;
22441;SDS011;11388;54.456;9.752;2023-04-09T16:01:07;7.97;;;4.45;;
22441;SDS011;11388;54.456;9.752;2023-04-09T16:03:34;8.27;;;4.47;;
22441;SDS011;11388;54.456;9.752;2023-04-09T16:06:12;8.35;;;4.50;;
22441;SDS011;11388;54.456;9.752;2023-04-09T16:08:49;6.47;;;4.50;;
22441;SDS011;11388;54.456;9.752;2023-04-09T16:11:15;11.85;;;6.57;;
22441;SDS011;11388;54.456;9.752;2023-04-09T16:13:44;13.32;;;8.73;;
22441;SDS011;11388;54.456;9.752;2023-04-09T16:16:10;7.60;;;5.25;;
22441;SDS011;11388;54.456;9.752;2023-04-09T16:18:36;7.72;;;4.70;;
22441;SDS011;11388;54.456;9.752;2023-04-09T16:21:01;8.85;;;5.57;;
22441;SDS011;11388;54.456;9.752;2023-04-09T16:23:44;8.70;;;5.15;;
22441;SDS011;11388;54.456;9.752;2023-04-09T16:29:12;10.02;;;5.22;;
22441;SDS011;11388;54.456;9.752;2023-04-09T16:31:40;8.60;;;5.63;;
22441;SDS011;11388;54.456;9.752;2023-04-09T16:34:06;10.68;;;5.75;;
22441;SDS011;11388;54.456;9.752;2023-04-09T16:36:32;9.30;;;5.80;;
22441;SDS011;11388;54.456;9.752;2023-04-09T16:39:01;11.40;;;7.45;;
22441;SDS011;11388;54.456;9.752;2023-04-09T16:41:27;10.32;;;5.65;;
22441;SDS011;11388;54.456;9.752;2023-04-09T16:43:56;9.88;;;6.25;;
22441;SDS011;11388;54.456;9.752;2023-04-09T16:46:28;10.75;;;6.28;;
22441;SDS011;11388;54.456;9.752;2023-04-09T16:48:54;19.35;;;13.52;;
22441;SDS011;11388;54.456;9.752;2023-04-09T16:51:20;20.80;;;14.65;;
22441;SDS011;11388;54.456;9.752;2023-04-09T16:53:54;9.85;;;6.60;;
22441;SDS011;11388;54.456;9.752;2023-04-09T16:56:23;12.65;;;7.63;;
22441;SDS011;11388;54.456;9.752;2023-04-09T16:58:49;11.20;;;7.15;;
22441;SDS011;11388;54.456;9.752;2023-04-09T17:01:14;13.57;;;6.97;;
22441;SDS011;11388;54.456;9.752;2023-04-09T17:03:43;11.52;;;6.30;;
22441;SDS011;11388;54.456;9.752;2023-04-09T17:08:59;11.00;;;6.40;;
22441;SDS011;11388;54.456;9.752;2023-04-09T17:11:27;11.18;;;7.32;;
22441;SDS011;11388;54.456;9.752;2023-04-09T17:13:56;11.70;;;8.05;;
22441;SDS011;11388;54.456;9.752;2023-04-09T17:16:46;12.23;;;9.13;;
22441;SDS011;11388;54.456;9.752;2023-04-09T17:19:17;11.65;;;8.10;;
22441;SDS011;11388;54.456;9.752;2023-04-09T17:21:43;12.18;;;7.72;;
22441;SDS011;11388;54.456;9.752;2023-04-09T17:24:09;11.48;;;7.10;;
22441;SDS011;11388;54.456;9.752;2023-04-09T17:26:35;11.20;;;7.25;;
22441;SDS011;11388;54.456;9.752;2023-04-09T17:29:00;11.45;;;7.35;;
22441;SDS011;11388;54.456;9.752;2023-04-09T17:31:26;11.23;;;7.60;;
22441;SDS011;11388;54.456;9.752;2023-04-09T17:33:52;11.10;;;7.55;;
22441;SDS011;11388;54.456;9.752;2023-04-09T17:36:18;12.90;;;7.70;;